Time;durP1;ratioP1;P1;durP2;ratioP2;P2;SDS_P1;SDS_P2;PMS_P1;PMS_P2;Temp;Humidity;BMP_temperature;BMP_pressure;BME280_temperature;BME280_humidity;BME280_pressure;Samples;Min_cycle;Max_cycle;Signal;HPM_P1;HPM_P2
2023/01/20 00:00:29;;;;;;;59.63;25.38;;;-3276.60;98.90;;;;;;5021723;28;20041;-70
2023/01/20 00:02:56;;;;;;;63.55;25.25;;;-3276.60;99.00;;;;;;5035820;28;20029;-69
2023/01/20 00:05:21;;;;;;;63.72;26.20;;;-3276.50;99.00;;;;;;5041251;28;20029;-69
2023/01/20 00:07:47;;;;;;;59.53;26.60;;;-3276.50;99.10;;;;;;5019624;28;20087;-69
2023/01/20 00:10:12;;;;;;;64.97;26.38;;;-3276.50;99.20;;;;;;5035499;28;20440;-69
2023/01/20 00:12:38;;;;;;;63.05;26.58;;;-3276.50;99.30;;;;;;5014720;28;20121;-70
2023/01/20 00:15:05;;;;;;;58.17;26.58;;;-3276.50;99.40;;;;;;5028751;28;20026;-70
2023/01/20 00:17:30;;;;;;;55.17;26.30;;;-3276.50;99.30;;;;;;5027224;28;20064;-72
2023/01/20 00:19:56;;;;;;;63.67;26.52;;;-3276.40;99.30;;;;;;5023719;28;20112;-70
2023/01/20 00:22:21;;;;;;;60.75;26.75;;;-3276.40;99.40;;;;;;5028183;28;20465;-72
2023/01/20 00:24:47;;;;;;;64.72;28.17;;;-3276.50;99.50;;;;;;5020765;28;20113;-71
2023/01/20 00:27:13;;;;;;;67.25;27.45;;;-3276.40;99.40;;;;;;5021082;28;20100;-70
2023/01/20 00:29:42;;;;;;;68.70;27.55;;;-3276.40;99.50;;;;;;5022914;28;20037;-70
2023/01/20 00:32:09;;;;;;;60.13;27.67;;;-3276.40;99.60;;;;;;5023409;28;20091;-71
2023/01/20 00:34:34;;;;;;;58.25;27.85;;;-3276.40;99.60;;;;;;5024083;28;20477;-70
2023/01/20 00:37:00;;;;;;;57.90;26.42;;;-3276.40;99.60;;;;;;5021151;28;20021;-69
2023/01/20 00:39:25;;;;;;;69.95;30.17;;;-3276.30;99.50;;;;;;5024983;28;20497;-70
2023/01/20 00:41:51;;;;;;;65.28;27.40;;;-3276.40;99.70;;;;;;5020565;28;20038;-70
2023/01/20 00:44:16;;;;;;;62.80;28.35;;;-3276.40;99.80;;;;;;5023541;28;20086;-70
2023/01/20 00:46:42;;;;;;;63.00;27.23;;;-3276.40;99.70;;;;;;5027383;28;20037;-70
2023/01/20 00:49:09;;;;;;;66.70;27.60;;;-3276.40;99.70;;;;;;5032015;28;20122;-69
2023/01/20 00:51:34;;;;;;;63.47;28.40;;;-3276.40;99.80;;;;;;5017813;28;20030;-70
2023/01/20 00:54:00;;;;;;;71.32;29.02;;;-3276.40;99.70;;;;;;5022820;28;20037;-69
2023/01/20 00:56:25;;;;;;;70.43;30.38;;;-3276.40;99.70;;;;;;5027929;28;20040;-70
2023/01/20 00:58:51;;;;;;;75.88;30.63;;;-3276.40;99.70;;;;;;5015362;28;20022;-70
2023/01/20 01:01:16;;;;;;;69.03;30.45;;;-3276.30;99.60;;;;;;5025870;28;20037;-70
2023/01/20 01:03:43;;;;;;;67.07;29.33;;;-3276.30;99.80;;;;;;5029260;28;20533;-70
2023/01/20 01:06:14;;;;;;;67.20;30.67;;;-3276.30;99.80;;;;;;5033382;28;20034;-71
2023/01/20 01:08:40;;;;;;;63.70;29.58;;;-3276.30;99.70;;;;;;5029083;28;20115;-70
2023/01/20 01:11:06;;;;;;;68.78;29.15;;;-3276.30;99.70;;;;;;5028847;28;20029;-70
2023/01/20 01:13:32;;;;;;;71.20;30.05;;;-3276.20;99.70;;;;;;5026089;28;20052;-69
2023/01/20 01:15:58;;;;;;;67.82;29.90;;;-3276.20;99.80;;;;;;5036613;28;20381;-70
2023/01/20 01:18:23;;;;;;;68.82;30.90;;;-3276.20;99.80;;;;;;5028571;28;20038;-70
2023/01/20 01:20:49;;;;;;;82.40;30.45;;;-3276.20;99.80;;;;;;5037254;28;20454;-69
2023/01/20 01:23:14;;;;;;;77.10;31.17;;;-3276.10;99.80;;;;;;5031781;28;20119;-70
2023/01/20 01:25:40;;;;;;;71.30;31.40;;;-3276.20;99.90;;;;;;5026518;28;20029;-70
2023/01/20 01:28:06;;;;;;;70.70;32.08;;;-3276.10;99.80;;;;;;5026733;28;20397;-69
2023/01/20 01:30:31;;;;;;;82.45;31.63;;;-3276.10;99.80;;;;;;5028714;28;20025;-69
2023/01/20 01:32:57;;;;;;;77.18;31.95;;;-3276.00;99.80;;;;;;5023629;28;20034;-70
2023/01/20 01:35:22;;;;;;;76.15;31.67;;;-3276.10;99.90;;;;;;5020796;28;20060;-70
2023/01/20 01:37:47;;;;;;;81.65;32.85;;;-3276.10;99.90;;;;;;5025884;28;20129;-69
2023/01/20 01:40:13;;;;;;;80.68;32.70;;;-3275.90;99.80;;;;;;5022757;28;20484;-70
2023/01/20 01:42:39;;;;;;;82.57;32.78;;;-3275.90;99.80;;;;;;5025870;28;20084;-70
2023/01/20 01:45:10;;;;;;;72.95;31.75;;;-3275.90;99.80;;;;;;5029091;28;20038;-70
2023/01/20 01:47:39;;;;;;;91.93;33.75;;;-3275.90;99.90;;;;;;5018299;28;20037;-70
2023/01/20 01:50:07;;;;;;;82.85;32.65;;;-3276.00;99.90;;;;;;5025714;28;20029;-70
2023/01/20 01:52:33;;;;;;;91.97;35.72;;;-3276.00;99.90;;;;;;5027033;28;20381;-70
2023/01/20 01:54:59;;;;;;;81.43;35.38;;;-3276.10;99.90;;;;;;5024780;28;20041;-72
2023/01/20 01:57:25;;;;;;;91.65;35.78;;;-3276.20;99.90;;;;;;5021778;28;20038;-70
2023/01/20 01:59:51;;;;;;;83.80;33.65;;;-3276.20;99.90;;;;;;5026178;28;20030;-72
2023/01/20 02:02:18;;;;;;;101.53;36.78;;;-3276.30;99.90;;;;;;5028167;28;20044;-70
2023/01/20 02:04:43;;;;;;;93.63;35.92;;;-3276.40;99.90;;;;;;5044293;28;20115;-71
2023/01/20 02:07:14;;;;;;;95.25;36.95;;;-3276.40;99.90;;;;;;5031989;28;20536;-70
2023/01/20 02:09:40;;;;;;;;;;;-3276.40;99.90;;;;;;5024421;28;20098;-71
2023/01/20 02:12:09;;;;;;;84.85;34.47;;;-3276.50;99.90;;;;;;5039288;28;20361;-70
2023/01/20 02:14:40;;;;;;;67.00;27.75;;;-3276.50;99.90;;;;;;5027750;28;20033;-70
2023/01/20 02:17:34;;;;;;;85.80;34.25;;;-3276.50;99.90;;;;;;5032055;28;20056;-69
2023/01/20 02:20:24;;;;;;;91.32;34.47;;;-3276.50;99.90;;;;;;5032924;28;20116;-70
2023/01/20 02:23:01;;;;;;;98.85;34.92;;;-3276.50;99.90;;;;;;5030776;28;20121;-72
2023/01/20 02:25:43;;;;;;;92.30;35.15;;;-3276.50;99.90;;;;;;5016766;28;20072;-69
2023/01/20 02:28:14;;;;;;;91.60;35.28;;;-3276.50;99.90;;;;;;5026044;28;20038;-70
2023/01/20 02:31:05;;;;;;;99.13;36.03;;;-3276.50;99.80;;;;;;5026968;28;20094;-71
2023/01/20 02:33:42;;;;;;;101.28;35.90;;;-3276.50;99.80;;;;;;5021040;28;20044;-69
2023/01/20 02:36:11;;;;;;;89.88;34.22;;;-3276.40;99.80;;;;;;5023834;28;20486;-71
2023/01/20 02:39:02;;;;;;;96.70;35.15;;;-3276.30;99.80;;;;;;5018840;28;20441;-69
2023/01/20 02:41:33;;;;;;;94.57;36.05;;;-3276.30;99.80;;;;;;5008652;28;20383;-70
2023/01/20 02:44:29;;;;;;;103.60;35.63;;;-3276.30;99.80;;;;;;5024657;28;20048;-71
2023/01/20 02:47:17;;;;;;;105.10;35.97;;;-3276.30;99.90;;;;;;5024833;28;20386;-69
2023/01/20 02:49:58;;;;;;;80.72;31.77;;;-3276.30;99.80;;;;;;5011594;28;20033;-69
2023/01/20 02:52:40;;;;;;;;;;;-3276.30;99.80;;;;;;5013187;28;20061;-71
2023/01/20 02:55:09;;;;;;;82.30;31.35;;;-3276.30;99.80;;;;;;5026084;28;19912;-69
2023/01/20 02:57:45;;;;;;;87.28;33.17;;;-3276.40;99.80;;;;;;5026791;28;20025;-70
2023/01/20 03:00:23;;;;;;;75.57;28.58;;;-3276.30;99.70;;;;;;5022387;28;20032;-69
2023/01/20 03:02:52;;;;;;;92.20;34.70;;;-3276.30;99.70;;;;;;5024365;28;20045;-70
2023/01/20 03:05:22;;;;;;;84.35;34.60;;;-3276.40;99.70;;;;;;5029494;28;20531;-70
2023/01/20 03:07:50;;;;;;;84.72;32.97;;;-3276.40;99.60;;;;;;5019281;28;20040;-70
2023/01/20 03:10:19;;;;;;;88.65;35.05;;;-3276.40;99.60;;;;;;5024360;28;20041;-70
2023/01/20 03:12:49;;;;;;;87.82;32.83;;;-3276.40;99.50;;;;;;5019028;28;20045;-69
2023/01/20 03:15:15;;;;;;;93.28;32.72;;;-3276.40;99.50;;;;;;5027356;28;20528;-69
2023/01/20 03:17:40;;;;;;;92.82;32.58;;;-3276.40;99.40;;;;;;5027948;28;20489;-69
2023/01/20 03:20:07;;;;;;;86.30;33.08;;;-3276.40;99.50;;;;;;5026765;28;20028;-71
2023/01/20 03:22:32;;;;;;;74.13;30.40;;;-3276.40;99.40;;;;;;5032480;28;20186;-69
2023/01/20 03:24:58;;;;;;;75.85;29.77;;;-3276.40;99.40;;;;;;5020768;28;20526;-70
2023/01/20 03:27:40;;;;;;;;;;;-3276.40;99.30;;;;;;5002586;28;20422;-70
2023/01/20 03:30:12;;;;;;;65.03;25.48;;;-3276.40;99.30;;;;;;5028492;28;19913;-70
2023/01/20 03:32:38;;;;;;;72.75;28.23;;;-3276.40;99.30;;;;;;5022540;28;20038;-71
2023/01/20 03:35:03;;;;;;;82.03;28.92;;;-3276.40;99.30;;;;;;5030901;28;20538;-70
2023/01/20 03:37:29;;;;;;;85.53;30.77;;;-3276.40;99.20;;;;;;5030160;28;20047;-70
2023/01/20 03:39:55;;;;;;;79.45;29.42;;;-3276.40;99.10;;;;;;5027112;28;20156;-70
2023/01/20 03:42:27;;;;;;;74.95;28.55;;;-3276.50;99.10;;;;;;5020445;28;20385;-70
2023/01/20 03:45:13;;;;;;;67.10;28.05;;;-3276.50;99.10;;;;;;5024274;28;20512;-71
2023/01/20 03:47:54;;;;;;;71.72;27.65;;;-3276.50;99.10;;;;;;5027958;28;20029;-70
2023/01/20 03:50:35;;;;;;;67.20;26.63;;;-3276.50;99.00;;;;;;5018026;28;20336;-70
2023/01/20 03:53:05;;;;;;;;;;;-3276.40;98.90;;;;;;5016864;28;20033;-70
2023/01/20 03:55:42;;;;;;;62.47;24.92;;;-3276.50;98.90;;;;;;5016762;28;19909;-70
2023/01/20 03:58:11;;;;;;;76.68;26.13;;;-3276.40;98.90;;;;;;5022261;28;20032;-71
2023/01/20 04:00:40;;;;;;;77.07;26.80;;;-3276.40;98.90;;;;;;5029582;28;20111;-70
2023/01/20 04:03:11;;;;;;;60.75;22.77;;;-3276.40;98.90;;;;;;5025547;28;20025;-70
2023/01/20 04:05:38;;;;;;;56.08;24.70;;;-3276.40;98.80;;;;;;5023291;28;20041;-71
2023/01/20 04:08:07;;;;;;;70.03;23.15;;;-3276.40;98.70;;;;;;5023440;28;20030;-70
2023/01/20 04:10:37;;;;;;;73.15;26.92;;;-3276.40;98.70;;;;;;5031167;28;20483;-70
2023/01/20 04:13:03;;;;;;;61.95;22.80;;;-3276.40;98.70;;;;;;5026905;28;20026;-71
2023/01/20 04:15:37;;;;;;;63.05;24.92;;;-3276.40;98.60;;;;;;5029590;28;20034;-70
2023/01/20 04:18:11;;;;;;;65.70;23.35;;;-3276.40;98.60;;;;;;5034692;28;20021;-72
2023/01/20 04:20:36;;;;;;;67.53;24.58;;;-3276.40;98.60;;;;;;5030779;28;20030;-72
2023/01/20 04:23:02;;;;;;;57.15;24.08;;;-3276.50;98.60;;;;;;5029161;28;20417;-70
2023/01/20 04:25:30;;;;;;;65.93;24.23;;;-3276.40;98.60;;;;;;5028205;28;20133;-71
2023/01/20 04:27:56;;;;;;;64.70;24.92;;;-3276.40;98.60;;;;;;5030411;28;20055;-70
2023/01/20 04:30:21;;;;;;;67.93;23.65;;;-3276.40;98.60;;;;;;5027413;28;20025;-70
2023/01/20 04:32:47;;;;;;;67.53;25.17;;;-3276.50;98.60;;;;;;5026324;28;20037;-70
2023/01/20 04:35:14;;;;;;;60.30;23.52;;;-3276.40;98.50;;;;;;5028736;28;20053;-69
2023/01/20 04:37:40;;;;;;;61.00;24.17;;;-3276.50;98.60;;;;;;5034160;28;20041;-69
2023/01/20 04:40:06;;;;;;;59.35;23.15;;;-3276.50;98.60;;;;;;5030130;28;20029;-69
2023/01/20 04:42:31;;;;;;;70.30;24.58;;;-3276.50;98.50;;;;;;5029055;28;20041;-70
2023/01/20 04:44:57;;;;;;;66.78;24.27;;;-3276.50;98.50;;;;;;5029027;28;20091;-70
2023/01/20 04:47:23;;;;;;;61.40;23.20;;;-3276.50;98.50;;;;;;5024419;28;20063;-71
2023/01/20 04:49:48;;;;;;;48.58;19.35;;;-3276.50;98.30;;;;;;5018113;28;20030;-70
2023/01/20 04:52:15;;;;;;;54.42;21.80;;;-3276.50;98.30;;;;;;5028654;28;20033;-70
2023/01/20 04:54:41;;;;;;;60.33;23.85;;;-3276.50;98.20;;;;;;5023050;28;20103;-70
2023/01/20 04:57:06;;;;;;;58.40;22.95;;;-3276.50;98.20;;;;;;5022644;28;20030;-71
2023/01/20 04:59:31;;;;;;;56.53;22.52;;;-3276.50;98.20;;;;;;5025783;28;20042;-71
2023/01/20 05:01:57;;;;;;;56.15;23.92;;;-3276.60;98.20;;;;;;5029517;28;20037;-72
2023/01/20 05:04:22;;;;;;;56.83;22.70;;;-3276.50;98.20;;;;;;5029805;28;20045;-70
2023/01/20 05:06:48;;;;;;;56.40;23.58;;;-3276.60;98.30;;;;;;5017551;28;20038;-71
2023/01/20 05:09:14;;;;;;;52.28;22.60;;;-3276.50;98.20;;;;;;5030369;28;20042;-70
2023/01/20 05:11:40;;;;;;;56.22;22.42;;;-3276.50;98.20;;;;;;5030120;28;20179;-70
2023/01/20 05:14:06;;;;;;;62.10;23.38;;;-3276.60;98.20;;;;;;5023850;28;20450;-70
2023/01/20 05:16:32;;;;;;;49.28;20.77;;;-3276.50;98.10;;;;;;5026127;28;20139;-70
2023/01/20 05:18:58;;;;;;;46.63;18.88;;;-3276.50;98.00;;;;;;5019305;28;20032;-71
2023/01/20 05:21:24;;;;;;;43.90;18.55;;;-3276.50;97.80;;;;;;5025673;28;20397;-70
2023/01/20 05:23:51;;;;;;;48.53;19.35;;;-3276.50;97.80;;;;;;5021884;28;20046;-70
2023/01/20 05:26:17;;;;;;;45.92;19.88;;;-3276.50;97.80;;;;;;5026945;28;20501;-70
2023/01/20 05:28:43;;;;;;;58.45;19.35;;;-3276.50;97.80;;;;;;5031935;28;20037;-70
2023/01/20 05:31:09;;;;;;;51.85;21.05;;;-3276.50;97.90;;;;;;5022827;28;20046;-72
2023/01/20 05:33:35;;;;;;;49.90;21.35;;;-3276.50;97.90;;;;;;5019513;28;20048;-72
2023/01/20 05:36:05;;;;;;;50.80;20.90;;;-3276.60;97.90;;;;;;5022706;28;20029;-72
2023/01/20 05:38:30;;;;;;;46.75;21.45;;;-3276.60;97.90;;;;;;5029085;28;20112;-72
2023/01/20 05:41:04;;;;;;;48.53;19.48;;;-3276.50;97.80;;;;;;5027852;28;20544;-71
2023/01/20 05:43:29;;;;;;;48.17;19.50;;;-3276.50;97.80;;;;;;5032981;28;20052;-72
2023/01/20 05:45:55;;;;;;;44.35;20.73;;;-3276.50;97.80;;;;;;5027506;28;20542;-72
2023/01/20 05:48:21;;;;;;;46.58;18.70;;;-3276.60;97.80;;;;;;5015357;28;20048;-72
2023/01/20 05:50:47;;;;;;;50.60;22.00;;;-3276.60;97.70;;;;;;5025422;28;20075;-72
2023/01/20 05:53:13;;;;;;;50.08;20.13;;;-3276.50;97.70;;;;;;5022085;28;20056;-72
2023/01/20 05:55:38;;;;;;;49.20;20.65;;;-3276.50;97.60;;;;;;5036831;28;20123;-72
2023/01/20 05:58:04;;;;;;;44.15;21.23;;;-3276.60;97.60;;;;;;5018586;28;20087;-72
2023/01/20 06:00:30;;;;;;;48.33;19.17;;;-3276.50;97.60;;;;;;5033118;28;20481;-71
2023/01/20 06:02:55;;;;;;;47.90;19.65;;;-3276.50;97.60;;;;;;5012406;28;20332;-72
2023/01/20 06:05:21;;;;;;;50.78;20.55;;;-3276.50;97.50;;;;;;5025852;28;20063;-72
2023/01/20 06:07:48;;;;;;;49.13;19.23;;;-3276.50;97.50;;;;;;5019975;28;20047;-72
2023/01/20 06:10:14;;;;;;;46.50;18.67;;;-3276.50;97.50;;;;;;5025879;28;20121;-72
2023/01/20 06:12:39;;;;;;;40.72;19.05;;;-3276.50;97.50;;;;;;5026130;28;20047;-72
2023/01/20 06:15:05;;;;;;;43.03;18.45;;;-3276.60;97.50;;;;;;5028543;28;20501;-72
2023/01/20 06:17:31;;;;;;;35.50;17.17;;;-3276.50;97.50;;;;;;5022674;28;20397;-72
2023/01/20 06:19:57;;;;;;;42.30;19.45;;;-3276.50;97.50;;;;;;5020888;28;20141;-72
2023/01/20 06:22:22;;;;;;;41.17;19.05;;;-3276.60;97.40;;;;;;5021537;28;20525;-72
2023/01/20 06:24:48;;;;;;;41.60;18.38;;;-3276.50;97.50;;;;;;5022430;28;20041;-72
2023/01/20 06:27:13;;;;;;;42.67;18.75;;;-3276.50;97.40;;;;;;5033847;28;20106;-71
2023/01/20 06:29:39;;;;;;;43.30;19.35;;;-3276.50;97.40;;;;;;5029585;28;20087;-72
2023/01/20 06:32:04;;;;;;;37.13;16.83;;;-3276.50;97.30;;;;;;5027387;28;20069;-72
2023/01/20 06:34:30;;;;;;;42.47;18.45;;;-3276.60;97.30;;;;;;5019361;28;20030;-71
2023/01/20 06:36:56;;;;;;;37.00;18.40;;;-3276.60;97.20;;;;;;5024824;28;20108;-71
2023/01/20 06:39:21;;;;;;;42.28;17.95;;;-3276.50;97.20;;;;;;5026315;28;20030;-73
2023/01/20 06:41:47;;;;;;;42.88;18.58;;;-3276.60;97.20;;;;;;5017829;28;20041;-72
2023/01/20 06:44:12;;;;;;;37.13;17.48;;;-3276.60;97.20;;;;;;5035953;28;20041;-74
2023/01/20 06:46:38;;;;;;;40.03;16.80;;;-3276.60;97.20;;;;;;5025357;28;20087;-72
2023/01/20 06:49:03;;;;;;;39.45;17.60;;;-3276.60;97.20;;;;;;5029092;28;20087;-73
2023/01/20 06:51:30;;;;;;;37.33;16.85;;;-3276.60;97.10;;;;;;5024116;28;20041;-71
2023/01/20 06:53:56;;;;;;;39.70;17.75;;;-3276.60;97.10;;;;;;5018388;28;20030;-71
2023/01/20 06:56:22;;;;;;;40.17;17.52;;;-3276.60;97.10;;;;;;5020111;28;20025;-71
2023/01/20 06:58:48;;;;;;;39.70;17.00;;;-3276.60;97.00;;;;;;5016780;28;20106;-72
2023/01/20 07:01:22;;;;;;;43.20;17.98;;;-3276.60;97.10;;;;;;5023108;28;20080;-72
2023/01/20 07:03:48;;;;;;;44.88;17.70;;;-3276.60;97.10;;;;;;5010214;28;20022;-71
2023/01/20 07:06:25;;;;;;;37.65;18.17;;;-3276.60;97.10;;;;;;5020296;28;20497;-72
2023/01/20 07:08:51;;;;;;;37.63;17.45;;;-3276.70;97.00;;;;;;5016921;28;20104;-72
2023/01/20 07:11:17;;;;;;;39.38;16.85;;;-3276.60;96.90;;;;;;5014522;28;20121;-72
2023/01/20 07:13:42;;;;;;;35.70;16.42;;;-3276.70;96.90;;;;;;5022146;28;20029;-71
2023/01/20 07:16:08;;;;;;;41.40;17.27;;;-3276.70;96.90;;;;;;5017843;28;20274;-72
2023/01/20 07:18:34;;;;;;;38.88;17.83;;;-3276.70;96.90;;;;;;5011955;28;20038;-71
2023/01/20 07:21:00;;;;;;;34.08;16.25;;;-3276.70;96.80;;;;;;5019550;28;20086;-71
2023/01/20 07:23:26;;;;;;;38.03;17.90;;;-3276.70;96.70;;;;;;5015653;28;20390;-71
2023/01/20 07:26:04;;;;;;;36.88;16.95;;;-3276.70;96.50;;;;;;5031261;28;20507;-71
2023/01/20 07:28:30;;;;;;;40.40;16.90;;;-3276.70;96.50;;;;;;5027679;28;20114;-71
2023/01/20 07:31:02;;;;;;;41.25;17.25;;;-3276.70;96.40;;;;;;5015282;28;20052;-71
2023/01/20 07:33:27;;;;;;;35.10;17.13;;;-3276.70;96.20;;;;;;5024345;28;20053;-71
2023/01/20 07:35:53;;;;;;;37.92;16.80;;;-3276.70;95.80;;;;;;5026962;28;20430;-71
2023/01/20 07:38:19;;;;;;;38.58;17.58;;;-3276.70;95.70;;;;;;5027279;28;20048;-72
2023/01/20 07:40:44;;;;;;;36.60;17.27;;;-3276.70;95.40;;;;;;5028228;28;20034;-71
2023/01/20 07:43:10;;;;;;;34.95;16.65;;;-3276.70;95.50;;;;;;5030844;28;20071;-71
2023/01/20 07:45:35;;;;;;;32.15;16.02;;;0.00;95.60;;;;;;5017638;28;20065;-72
2023/01/20 07:48:02;;;;;;;33.38;16.65;;;0.00;95.40;;;;;;5017833;28;20097;-72
2023/01/20 07:50:28;;;;;;;41.33;17.60;;;0.00;95.00;;;;;;5014613;28;20499;-72
2023/01/20 07:52:54;;;;;;;40.10;17.88;;;-3276.70;95.10;;;;;;5031524;28;20108;-72
2023/01/20 07:55:20;;;;;;;37.72;18.35;;;-3276.70;95.00;;;;;;5029286;28;20087;-71
2023/01/20 07:57:45;;;;;;;40.65;19.45;;;0.00;95.10;;;;;;5030224;28;20040;-71
2023/01/20 08:00:11;;;;;;;37.45;17.20;;;0.00;95.10;;;;;;5024245;28;20038;-72
2023/01/20 08:02:37;;;;;;;39.20;17.15;;;0.00;95.30;;;;;;5023838;28;20040;-71
2023/01/20 08:05:04;;;;;;;38.80;17.60;;;0.00;95.40;;;;;;5026719;28;20038;-71
2023/01/20 08:07:30;;;;;;;37.63;18.00;;;0.00;95.50;;;;;;5025874;28;20034;-72
2023/01/20 08:09:56;;;;;;;38.10;17.25;;;0.00;95.60;;;;;;5021236;28;20487;-72
2023/01/20 08:12:22;;;;;;;35.72;16.98;;;0.00;95.40;;;;;;5029562;28;20107;-71
2023/01/20 08:14:48;;;;;;;36.22;18.77;;;0.00;95.10;;;;;;5024727;28;20474;-72
2023/01/20 08:17:14;;;;;;;32.55;16.05;;;0.00;95.20;;;;;;5029643;28;20030;-71
2023/01/20 08:19:39;;;;;;;37.33;17.23;;;0.00;94.90;;;;;;5020283;28;20034;-71
2023/01/20 08:22:05;;;;;;;33.88;16.27;;;0.00;94.70;;;;;;5026732;28;20033;-72
2023/01/20 08:24:30;;;;;;;29.95;15.40;;;0.00;94.60;;;;;;5021188;28;20049;-71
2023/01/20 08:26:56;;;;;;;32.80;14.95;;;0.00;94.50;;;;;;5019373;28;20092;-72
2023/01/20 08:29:21;;;;;;;38.15;16.88;;;0.10;94.60;;;;;;5030913;28;20116;-72
2023/01/20 08:31:47;;;;;;;31.67;15.85;;;0.10;94.70;;;;;;5027980;28;20037;-71
2023/01/20 08:34:13;;;;;;;27.83;13.73;;;0.10;94.80;;;;;;5021299;28;20117;-72
2023/01/20 08:36:40;;;;;;;32.45;14.63;;;0.10;94.10;;;;;;5017357;28;20030;-72
2023/01/20 08:39:09;;;;;;;31.60;14.63;;;0.10;93.90;;;;;;5026794;28;20030;-72
2023/01/20 08:41:36;;;;;;;30.38;15.15;;;0.10;93.90;;;;;;5022207;28;20518;-72
2023/01/20 08:44:04;;;;;;;31.00;15.32;;;0.20;93.90;;;;;;5021229;28;20032;-72
2023/01/20 08:46:30;;;;;;;29.25;14.48;;;0.20;94.00;;;;;;5031916;28;20507;-71
2023/01/20 08:48:56;;;;;;;28.05;14.60;;;0.20;93.70;;;;;;5024102;28;20026;-71
2023/01/20 08:51:30;;;;;;;32.15;14.25;;;0.30;93.80;;;;;;5022750;28;20026;-71
2023/01/20 08:53:56;;;;;;;30.88;13.73;;;0.30;94.00;;;;;;5022609;28;20045;-72
2023/01/20 08:56:22;;;;;;;29.10;14.80;;;0.40;93.70;;;;;;5015669;28;20025;-71
2023/01/20 08:58:47;;;;;;;32.28;14.57;;;0.40;93.70;;;;;;5024616;28;20033;-71
2023/01/20 09:01:19;;;;;;;29.95;15.43;;;0.40;93.60;;;;;;5023276;28;20037;-72
2023/01/20 09:03:45;;;;;;;26.55;13.68;;;0.50;93.60;;;;;;5025804;28;20030;-71
2023/01/20 09:06:11;;;;;;;27.98;14.45;;;0.50;93.60;;;;;;5024775;28;20057;-72
2023/01/20 09:08:37;;;;;;;28.17;12.93;;;0.50;93.60;;;;;;5023694;28;20030;-71
2023/01/20 09:11:05;;;;;;;27.38;13.57;;;0.50;93.20;;;;;;5023465;28;20041;-71
2023/01/20 09:13:30;;;;;;;34.97;14.35;;;0.60;93.50;;;;;;5025286;28;20025;-72
2023/01/20 09:15:56;;;;;;;29.20;13.88;;;0.60;93.60;;;;;;5021739;28;20032;-72
2023/01/20 09:18:21;;;;;;;26.73;14.45;;;0.70;93.40;;;;;;5014826;28;20033;-71
2023/01/20 09:20:47;;;;;;;26.25;13.13;;;0.70;93.20;;;;;;5020196;28;20029;-72
2023/01/20 09:23:12;;;;;;;26.48;14.02;;;0.70;93.20;;;;;;5020617;28;20445;-72
2023/01/20 09:25:37;;;;;;;28.88;15.07;;;0.70;92.90;;;;;;5024976;28;20041;-72
2023/01/20 09:28:03;;;;;;;25.70;13.40;;;0.80;92.90;;;;;;5023640;28;20029;-72
2023/01/20 09:30:29;;;;;;;35.55;19.50;;;0.80;92.80;;;;;;5025202;28;20481;-72
2023/01/20 09:32:56;;;;;;;27.10;13.75;;;0.80;92.90;;;;;;5030911;28;20038;-72
2023/01/20 09:35:22;;;;;;;27.67;14.85;;;0.80;92.60;;;;;;5022823;28;20112;-72
2023/01/20 09:44:27;;;;;;;25.15;12.00;;;0.80;92.00;;;;;;5031073;28;20060;-72
2023/01/20 09:47:21;;;;;;;24.85;11.98;;;0.80;92.20;;;;;;5025887;28;20061;-72
2023/01/20 09:53:04;;;;;;;25.25;13.25;;;1.10;91.80;;;;;;5027143;28;20048;-72
2023/01/20 09:55:38;;;;;;;24.90;12.35;;;1.30;91.90;;;;;;5019689;28;20049;-72
2023/01/20 09:58:10;;;;;;;27.77;12.95;;;1.30;91.20;;;;;;5029035;28;20021;-72
2023/01/20 10:00:39;;;;;;;21.85;10.75;;;1.50;91.20;;;;;;5021210;28;20030;-72
2023/01/20 10:03:12;;;;;;;26.20;12.98;;;1.50;90.50;;;;;;5025557;28;20124;-72
2023/01/20 10:05:39;;;;;;;25.20;12.07;;;1.60;91.30;;;;;;5023912;28;20042;-72
2023/01/20 10:08:19;;;;;;;23.45;12.43;;;1.70;91.30;;;;;;5029314;28;20359;-72
2023/01/20 10:11:02;;;;;;;27.77;12.55;;;1.70;90.70;;;;;;5024002;28;20518;-72
2023/01/20 10:13:46;;;;;;;24.42;12.10;;;1.90;90.60;;;;;;5027891;28;20037;-72
2023/01/20 10:16:19;;;;;;;19.30;11.57;;;1.90;89.30;;;;;;5025701;28;20029;-72
2023/01/20 10:18:56;;;;;;;22.65;11.98;;;2.00;89.30;;;;;;5024635;28;20030;-73
2023/01/20 10:21:36;;;;;;;21.00;11.02;;;2.00;89.40;;;;;;5023094;28;20113;-72
2023/01/20 10:24:17;;;;;;;23.58;11.95;;;2.10;89.40;;;;;;5021635;28;20053;-72
2023/01/20 10:26:53;;;;;;;23.83;10.70;;;2.20;88.80;;;;;;5017280;28;20046;-72
2023/01/20 10:29:28;;;;;;;18.85;10.27;;;2.30;87.10;;;;;;5017414;28;20029;-72
2023/01/20 10:32:04;;;;;;;23.85;10.63;;;2.60;87.40;;;;;;5017048;28;20036;-72
2023/01/20 10:34:46;;;;;;;20.65;11.45;;;2.70;86.80;;;;;;5020086;28;20028;-72
2023/01/20 10:37:14;;;;;;;18.77;10.73;;;2.60;86.80;;;;;;5024026;28;20029;-72
2023/01/20 10:39:55;;;;;;;20.55;11.73;;;2.70;86.90;;;;;;5017244;28;20032;-72
2023/01/20 10:42:23;;;;;;;21.05;11.00;;;2.70;87.00;;;;;;5022017;28;20033;-71
2023/01/20 10:44:50;;;;;;;25.23;10.60;;;2.60;85.40;;;;;;5016854;28;20040;-72
2023/01/20 10:47:36;;;;;;;21.50;11.70;;;2.80;86.70;;;;;;5026883;28;20040;-72
2023/01/20 10:50:37;;;;;;;20.90;10.73;;;2.60;85.80;;;;;;5014019;28;20367;-71
2023/01/20 10:53:05;;;;;;;20.00;10.05;;;2.70;86.60;;;;;;5016011;28;20057;-71
2023/01/20 10:55:59;;;;;;;22.08;10.63;;;2.80;87.10;;;;;;5013283;28;20041;-71
2023/01/20 10:58:32;;;;;;;21.40;11.15;;;2.60;86.50;;;;;;5014810;28;20029;-72
2023/01/20 11:01:01;;;;;;;21.83;12.52;;;2.70;87.50;;;;;;5025671;28;20033;-71
2023/01/20 11:03:35;;;;;;;25.38;12.98;;;2.60;86.60;;;;;;5022217;28;20091;-71
2023/01/20 11:06:02;;;;;;;21.00;12.13;;;2.40;87.10;;;;;;5013658;28;20061;-71
2023/01/20 11:08:29;;;;;;;21.33;10.75;;;2.40;87.10;;;;;;5021508;28;20040;-71
2023/01/20 11:11:07;;;;;;;21.75;11.40;;;2.40;87.50;;;;;;5021417;28;20075;-71
2023/01/20 11:13:32;;;;;;;17.50;10.75;;;2.50;87.30;;;;;;5023242;28;20478;-71
2023/01/20 11:16:02;;;;;;;22.00;11.07;;;2.40;87.20;;;;;;5024783;28;20044;-71
2023/01/20 11:18:30;;;;;;;21.35;11.32;;;2.50;87.20;;;;;;5020124;28;20072;-71
2023/01/20 11:21:05;;;;;;;20.20;10.48;;;2.70;86.60;;;;;;5021232;28;20025;-72
2023/01/20 11:23:37;;;;;;;18.50;10.48;;;2.70;85.60;;;;;;5023244;28;20056;-71
2023/01/20 11:26:30;;;;;;;20.33;11.65;;;2.80;87.00;;;;;;5022936;28;20061;-71
2023/01/20 11:29:27;;;;;;;21.23;11.18;;;2.60;85.80;;;;;;5018316;28;20467;-72
2023/01/20 11:31:54;;;;;;;20.08;10.15;;;2.70;86.10;;;;;;5018884;28;20402;-71
2023/01/20 11:34:31;;;;;;;16.73;9.80;;;2.60;85.90;;;;;;5023803;28;20037;-72
2023/01/20 11:37:08;;;;;;;21.15;11.00;;;2.60;85.50;;;;;;5024719;28;20417;-71
2023/01/20 11:39:49;;;;;;;19.80;9.93;;;2.70;85.80;;;;;;5010736;28;20034;-72
2023/01/20 11:42:23;;;;;;;19.63;9.88;;;2.60;85.40;;;;;;5020293;28;20030;-71
2023/01/20 11:44:53;;;;;;;22.13;10.98;;;2.40;86.50;;;;;;5019381;28;20049;-71
2023/01/20 11:47:36;;;;;;;18.45;10.27;;;2.20;86.90;;;;;;5022853;28;20040;-71
2023/01/20 11:50:07;;;;;;;20.10;11.27;;;2.10;87.20;;;;;;5037308;28;20357;-71
2023/01/20 11:52:33;;;;;;;;;;;2.40;86.90;;;;;;5040772;28;20025;-70
2023/01/20 11:55:12;;;;;;;17.98;9.18;;;2.70;85.90;;;;;;5049228;28;19909;-70
2023/01/20 11:57:43;;;;;;;20.58;9.60;;;2.90;85.60;;;;;;5047714;28;20029;-70
2023/01/20 12:00:18;;;;;;;17.02;9.95;;;3.10;84.40;;;;;;5030518;28;20037;-70
2023/01/20 12:02:55;;;;;;;19.95;9.57;;;3.10;83.80;;;;;;5021725;28;20037;-70
2023/01/20 12:05:29;;;;;;;18.08;9.60;;;3.40;84.10;;;;;;5010015;28;20073;-70
2023/01/20 12:07:55;;;;;;;17.33;9.80;;;3.50;83.20;;;;;;5024380;28;20030;-70
2023/01/20 12:10:22;;;;;;;17.77;9.05;;;3.50;82.60;;;;;;5024062;28;20052;-70
2023/01/20 12:13:13;;;;;;;17.08;9.43;;;3.50;81.50;;;;;;5015165;28;20297;-70
2023/01/20 12:15:51;;;;;;;16.15;8.55;;;3.80;82.80;;;;;;5020477;28;20035;-70
2023/01/20 12:18:37;;;;;;;17.60;9.25;;;4.00;82.50;;;;;;5027977;28;20037;-70
2023/01/20 12:21:17;;;;;;;13.57;8.68;;;4.10;81.40;;;;;;5021752;28;20109;-70
2023/01/20 12:23:55;;;;;;;15.52;8.65;;;4.30;80.60;;;;;;5018389;28;20050;-70
2023/01/20 12:26:22;;;;;;;16.88;9.13;;;4.40;79.10;;;;;;5023922;28;20037;-70
2023/01/20 12:28:49;;;;;;;14.30;8.25;;;4.10;80.10;;;;;;5025117;28;20033;-70
2023/01/20 12:31:19;;;;;;;14.32;8.18;;;4.30;79.20;;;;;;5028413;28;20037;-70
2023/01/20 12:34:12;;;;;;;12.27;7.80;;;4.20;79.00;;;;;;5020478;28;20034;-70